sensor_id;sensor_type;location;lat;lon;timestamp;temperature;humidity
10543;DHT22;5320;50.046;10.314;2022-07-17T00:00:41;17.00;1.00
10543;DHT22;5320;50.046;10.314;2022-07-17T00:03:11;17.00;1.00
10543;DHT22;5320;50.046;10.314;2022-07-17T00:05:37;17.00;1.00
10543;DHT22;5320;50.046;10.314;2022-07-17T00:08:06;17.00;1.00
10543;DHT22;5320;50.046;10.314;2022-07-17T00:10:34;17.00;1.00
10543;DHT22;5320;50.046;10.314;2022-07-17T00:13:00;17.00;1.00
10543;DHT22;5320;50.046;10.314;2022-07-17T00:15:26;17.00;1.00
10543;DHT22;5320;50.046;10.314;2022-07-17T00:17:52;17.00;1.00
10543;DHT22;5320;50.046;10.314;2022-07-17T00:20:18;17.00;1.00
10543;DHT22;5320;50.046;10.314;2022-07-17T00:22:43;16.90;1.00
10543;DHT22;5320;50.046;10.314;2022-07-17T00:25:10;16.90;1.00
10543;DHT22;5320;50.046;10.314;2022-07-17T00:27:39;16.80;1.00
10543;DHT22;5320;50.046;10.314;2022-07-17T00:30:06;16.70;1.00
10543;DHT22;5320;50.046;10.314;2022-07-17T00:32:33;16.60;1.00
10543;DHT22;5320;50.046;10.314;2022-07-17T00:34:58;16.60;1.00
10543;DHT22;5320;50.046;10.314;2022-07-17T00:37:24;16.50;1.00
10543;DHT22;5320;50.046;10.314;2022-07-17T00:39:50;16.50;1.00
10543;DHT22;5320;50.046;10.314;2022-07-17T00:42:17;16.50;1.00
10543;DHT22;5320;50.046;10.314;2022-07-17T00:44:43;16.50;1.00
10543;DHT22;5320;50.046;10.314;2022-07-17T00:47:16;16.50;1.00
10543;DHT22;5320;50.046;10.314;2022-07-17T00:49:42;16.40;1.00
10543;DHT22;5320;50.046;10.314;2022-07-17T00:52:09;16.40;1.00
10543;DHT22;5320;50.046;10.314;2022-07-17T00:54:37;16.30;1.00
10543;DHT22;5320;50.046;10.314;2022-07-17T00:57:06;16.10;1.00
10543;DHT22;5320;50.046;10.314;2022-07-17T00:59:33;16.10;1.00
10543;DHT22;5320;50.046;10.314;2022-07-17T01:02:06;16.10;1.00
10543;DHT22;5320;50.046;10.314;2022-07-17T01:04:33;16.10;1.00
10543;DHT22;5320;50.046;10.314;2022-07-17T01:07:00;16.10;1.00
10543;DHT22;5320;50.046;10.314;2022-07-17T01:09:27;16.00;1.00
10543;DHT22;5320;50.046;10.314;2022-07-17T01:11:53;16.00;1.00
10543;DHT22;5320;50.046;10.314;2022-07-17T01:14:19;16.00;1.00
10543;DHT22;5320;50.046;10.314;2022-07-17T01:16:46;15.90;1.00
10543;DHT22;5320;50.046;10.314;2022-07-17T01:19:11;15.80;1.00
10543;DHT22;5320;50.046;10.314;2022-07-17T01:21:46;15.70;41.00
10543;DHT22;5320;50.046;10.314;2022-07-17T01:24:12;15.70;1.00
10543;DHT22;5320;50.046;10.314;2022-07-17T01:26:43;15.70;31.60
10543;DHT22;5320;50.046;10.314;2022-07-17T01:29:09;15.70;99.90
10543;DHT22;5320;50.046;10.314;2022-07-17T01:31:36;15.70;41.70
10543;DHT22;5320;50.046;10.314;2022-07-17T01:34:03;15.70;74.80
10543;DHT22;5320;50.046;10.314;2022-07-17T01:36:30;15.70;1.00
10543;DHT22;5320;50.046;10.314;2022-07-17T01:38:55;15.70;16.60
10543;DHT22;5320;50.046;10.314;2022-07-17T01:41:22;15.70;10.00
10543;DHT22;5320;50.046;10.314;2022-07-17T01:43:48;15.60;89.00
10543;DHT22;5320;50.046;10.314;2022-07-17T01:46:14;15.60;99.90
10543;DHT22;5320;50.046;10.314;2022-07-17T01:48:40;15.60;99.90
10543;DHT22;5320;50.046;10.314;2022-07-17T01:51:06;15.50;99.90
10543;DHT22;5320;50.046;10.314;2022-07-17T01:53:32;15.40;99.90
10543;DHT22;5320;50.046;10.314;2022-07-17T01:55:58;15.30;99.90
10543;DHT22;5320;50.046;10.314;2022-07-17T01:58:23;15.30;1.00
10543;DHT22;5320;50.046;10.314;2022-07-17T02:00:49;15.20;1.00
10543;DHT22;5320;50.046;10.314;2022-07-17T02:03:16;15.30;99.90
10543;DHT22;5320;50.046;10.314;2022-07-17T02:05:43;15.20;1.00
10543;DHT22;5320;50.046;10.314;2022-07-17T02:08:08;15.20;1.00
10543;DHT22;5320;50.046;10.314;2022-07-17T02:10:34;15.20;1.00
10543;DHT22;5320;50.046;10.314;2022-07-17T02:13:00;14.80;1.00
10543;DHT22;5320;50.046;10.314;2022-07-17T02:15:27;14.20;1.00
10543;DHT22;5320;50.046;10.314;2022-07-17T02:17:53;14.30;99.90
10543;DHT22;5320;50.046;10.314;2022-07-17T02:20:19;14.40;1.00
10543;DHT22;5320;50.046;10.314;2022-07-17T02:22:44;14.70;1.00
10543;DHT22;5320;50.046;10.314;2022-07-17T02:25:11;14.90;1.00
10543;DHT22;5320;50.046;10.314;2022-07-17T02:27:38;14.70;1.00
10543;DHT22;5320;50.046;10.314;2022-07-17T02:30:07;14.70;1.00
10543;DHT22;5320;50.046;10.314;2022-07-17T02:32:33;14.80;1.00
10543;DHT22;5320;50.046;10.314;2022-07-17T02:34:59;15.00;1.00
10543;DHT22;5320;50.046;10.314;2022-07-17T02:37:25;15.00;99.90
10543;DHT22;5320;50.046;10.314;2022-07-17T02:39:51;14.90;99.90
10543;DHT22;5320;50.046;10.314;2022-07-17T02:42:23;14.90;1.00
10543;DHT22;5320;50.046;10.314;2022-07-17T02:44:51;14.50;99.90
10543;DHT22;5320;50.046;10.314;2022-07-17T02:47:24;14.20;1.00
10543;DHT22;5320;50.046;10.314;2022-07-17T02:49:51;14.20;1.00
10543;DHT22;5320;50.046;10.314;2022-07-17T02:52:17;14.30;99.90
10543;DHT22;5320;50.046;10.314;2022-07-17T02:54:43;14.40;1.00
10543;DHT22;5320;50.046;10.314;2022-07-17T02:57:09;14.50;1.00
10543;DHT22;5320;50.046;10.314;2022-07-17T02:59:35;14.30;1.00
10543;DHT22;5320;50.046;10.314;2022-07-17T03:02:01;14.20;1.00
10543;DHT22;5320;50.046;10.314;2022-07-17T03:04:27;14.20;99.90
10543;DHT22;5320;50.046;10.314;2022-07-17T03:06:53;14.20;1.00
10543;DHT22;5320;50.046;10.314;2022-07-17T03:09:19;14.30;1.00
10543;DHT22;5320;50.046;10.314;2022-07-17T03:11:44;14.30;1.00
10543;DHT22;5320;50.046;10.314;2022-07-17T03:14:10;14.20;1.00
10543;DHT22;5320;50.046;10.314;2022-07-17T03:16:36;14.00;99.90
10543;DHT22;5320;50.046;10.314;2022-07-17T03:19:02;13.90;1.00
10543;DHT22;5320;50.046;10.314;2022-07-17T03:21:27;13.90;6.00
10543;DHT22;5320;50.046;10.314;2022-07-17T03:23:53;13.90;99.90
10543;DHT22;5320;50.046;10.314;2022-07-17T03:26:19;14.00;99.90
10543;DHT22;5320;50.046;10.314;2022-07-17T03:28:45;13.90;1.00
10543;DHT22;5320;50.046;10.314;2022-07-17T03:31:10;13.80;99.90
10543;DHT22;5320;50.046;10.314;2022-07-17T03:33:36;13.90;99.90
10543;DHT22;5320;50.046;10.314;2022-07-17T03:36:02;14.10;1.00
10543;DHT22;5320;50.046;10.314;2022-07-17T03:38:28;14.20;1.00
10543;DHT22;5320;50.046;10.314;2022-07-17T03:40:54;14.30;1.00
10543;DHT22;5320;50.046;10.314;2022-07-17T03:43:20;14.30;1.00
10543;DHT22;5320;50.046;10.314;2022-07-17T03:45:45;14.30;1.00
10543;DHT22;5320;50.046;10.314;2022-07-17T03:48:11;14.40;1.00
10543;DHT22;5320;50.046;10.314;2022-07-17T03:50:37;14.40;1.00
10543;DHT22;5320;50.046;10.314;2022-07-17T03:53:03;14.40;1.00
10543;DHT22;5320;50.046;10.314;2022-07-17T03:55:28;14.30;1.00
10543;DHT22;5320;50.046;10.314;2022-07-17T03:57:54;14.30;1.00
10543;DHT22;5320;50.046;10.314;2022-07-17T04:00:20;14.30;1.00
10543;DHT22;5320;50.046;10.314;2022-07-17T04:02:46;14.20;1.00
10543;DHT22;5320;50.046;10.314;2022-07-17T04:05:12;14.20;1.00
10543;DHT22;5320;50.046;10.314;2022-07-17T04:07:41;14.20;1.00
10543;DHT22;5320;50.046;10.314;2022-07-17T04:10:09;14.20;1.00
10543;DHT22;5320;50.046;10.314;2022-07-17T04:12:36;14.30;1.00
10543;DHT22;5320;50.046;10.314;2022-07-17T04:15:03;14.30;1.00
10543;DHT22;5320;50.046;10.314;2022-07-17T04:17:29;14.30;29.40
10543;DHT22;5320;50.046;10.314;2022-07-17T04:19:55;14.30;1.00
10543;DHT22;5320;50.046;10.314;2022-07-17T04:22:21;14.20;1.00
10543;DHT22;5320;50.046;10.314;2022-07-17T04:24:47;14.10;99.90
10543;DHT22;5320;50.046;10.314;2022-07-17T04:27:13;14.00;99.90
10543;DHT22;5320;50.046;10.314;2022-07-17T04:29:39;13.60;1.00
10543;DHT22;5320;50.046;10.314;2022-07-17T04:32:05;13.20;99.90
10543;DHT22;5320;50.046;10.314;2022-07-17T04:34:32;13.10;1.00
10543;DHT22;5320;50.046;10.314;2022-07-17T04:36:59;12.90;1.00
10543;DHT22;5320;50.046;10.314;2022-07-17T04:39:24;12.80;1.00
10543;DHT22;5320;50.046;10.314;2022-07-17T04:41:51;12.70;1.00
10543;DHT22;5320;50.046;10.314;2022-07-17T04:44:17;12.70;1.00
10543;DHT22;5320;50.046;10.314;2022-07-17T04:46:43;12.90;1.00
10543;DHT22;5320;50.046;10.314;2022-07-17T04:49:08;13.30;1.00
10543;DHT22;5320;50.046;10.314;2022-07-17T04:51:34;13.40;99.90
10543;DHT22;5320;50.046;10.314;2022-07-17T04:54:04;13.30;68.70
10543;DHT22;5320;50.046;10.314;2022-07-17T04:56:30;13.30;9.50
10543;DHT22;5320;50.046;10.314;2022-07-17T04:58:56;13.40;99.90
10543;DHT22;5320;50.046;10.314;2022-07-17T05:01:22;13.40;60.00
10543;DHT22;5320;50.046;10.314;2022-07-17T05:03:47;13.30;99.90
10543;DHT22;5320;50.046;10.314;2022-07-17T05:06:13;13.00;1.00
10543;DHT22;5320;50.046;10.314;2022-07-17T05:08:39;12.80;1.00
10543;DHT22;5320;50.046;10.314;2022-07-17T05:11:05;13.00;1.00
10543;DHT22;5320;50.046;10.314;2022-07-17T05:13:30;13.40;1.00
10543;DHT22;5320;50.046;10.314;2022-07-17T05:15:56;13.70;99.90
10543;DHT22;5320;50.046;10.314;2022-07-17T05:18:22;14.00;1.00
10543;DHT22;5320;50.046;10.314;2022-07-17T05:20:48;14.30;1.00
10543;DHT22;5320;50.046;10.314;2022-07-17T05:23:14;14.40;12.90
10543;DHT22;5320;50.046;10.314;2022-07-17T05:25:39;14.60;1.00
10543;DHT22;5320;50.046;10.314;2022-07-17T05:28:05;14.70;99.90
10543;DHT22;5320;50.046;10.314;2022-07-17T05:30:31;14.80;1.00
10543;DHT22;5320;50.046;10.314;2022-07-17T05:32:57;14.90;1.00
10543;DHT22;5320;50.046;10.314;2022-07-17T05:35:22;14.90;1.00
10543;DHT22;5320;50.046;10.314;2022-07-17T05:37:48;14.70;1.00
10543;DHT22;5320;50.046;10.314;2022-07-17T05:40:14;14.60;1.00
10543;DHT22;5320;50.046;10.314;2022-07-17T05:42:40;14.50;1.00
10543;DHT22;5320;50.046;10.314;2022-07-17T05:45:06;14.50;1.00
10543;DHT22;5320;50.046;10.314;2022-07-17T05:47:32;14.60;99.90
10543;DHT22;5320;50.046;10.314;2022-07-17T05:49:58;14.70;1.00
10543;DHT22;5320;50.046;10.314;2022-07-17T05:52:24;14.80;57.90
10543;DHT22;5320;50.046;10.314;2022-07-17T05:54:50;15.00;91.70
10543;DHT22;5320;50.046;10.314;2022-07-17T05:57:16;15.30;1.00
10543;DHT22;5320;50.046;10.314;2022-07-17T05:59:41;15.50;99.90
10543;DHT22;5320;50.046;10.314;2022-07-17T06:02:07;15.70;1.00
10543;DHT22;5320;50.046;10.314;2022-07-17T06:04:33;15.80;99.90
10543;DHT22;5320;50.046;10.314;2022-07-17T06:06:59;16.10;1.00
10543;DHT22;5320;50.046;10.314;2022-07-17T06:09:25;16.20;1.00
10543;DHT22;5320;50.046;10.314;2022-07-17T06:11:51;16.40;1.00
10543;DHT22;5320;50.046;10.314;2022-07-17T06:14:17;16.60;1.00
10543;DHT22;5320;50.046;10.314;2022-07-17T06:16:43;16.80;99.90
10543;DHT22;5320;50.046;10.314;2022-07-17T06:19:08;16.90;30.40
10543;DHT22;5320;50.046;10.314;2022-07-17T06:21:34;17.00;98.70
10543;DHT22;5320;50.046;10.314;2022-07-17T06:24:00;17.10;75.40
10543;DHT22;5320;50.046;10.314;2022-07-17T06:26:26;17.20;1.00
10543;DHT22;5320;50.046;10.314;2022-07-17T06:28:51;17.30;1.00
10543;DHT22;5320;50.046;10.314;2022-07-17T06:31:17;17.50;1.00
10543;DHT22;5320;50.046;10.314;2022-07-17T06:33:43;17.60;1.00
10543;DHT22;5320;50.046;10.314;2022-07-17T06:36:09;17.70;1.00
10543;DHT22;5320;50.046;10.314;2022-07-17T06:38:35;17.80;1.00
10543;DHT22;5320;50.046;10.314;2022-07-17T06:41:02;17.90;1.00
10543;DHT22;5320;50.046;10.314;2022-07-17T06:43:28;18.10;1.00
10543;DHT22;5320;50.046;10.314;2022-07-17T06:45:53;18.20;1.00
10543;DHT22;5320;50.046;10.314;2022-07-17T06:48:22;18.30;99.90
10543;DHT22;5320;50.046;10.314;2022-07-17T06:50:48;18.40;99.90
10543;DHT22;5320;50.046;10.314;2022-07-17T06:53:14;18.60;99.90
10543;DHT22;5320;50.046;10.314;2022-07-17T06:55:40;18.70;99.90
10543;DHT22;5320;50.046;10.314;2022-07-17T06:58:06;18.80;99.90
10543;DHT22;5320;50.046;10.314;2022-07-17T07:00:32;18.90;99.90
10543;DHT22;5320;50.046;10.314;2022-07-17T07:02:58;18.90;99.90
10543;DHT22;5320;50.046;10.314;2022-07-17T07:05:24;19.00;99.90
10543;DHT22;5320;50.046;10.314;2022-07-17T07:07:50;19.10;93.40
10543;DHT22;5320;50.046;10.314;2022-07-17T07:10:16;19.10;15.90
10543;DHT22;5320;50.046;10.314;2022-07-17T07:12:42;19.20;31.80
10543;DHT22;5320;50.046;10.314;2022-07-17T07:15:08;19.30;1.00
10543;DHT22;5320;50.046;10.314;2022-07-17T07:17:35;19.40;1.00
10543;DHT22;5320;50.046;10.314;2022-07-17T07:20:02;19.40;1.00
10543;DHT22;5320;50.046;10.314;2022-07-17T07:22:29;19.50;1.00
10543;DHT22;5320;50.046;10.314;2022-07-17T07:24:55;19.60;1.00
10543;DHT22;5320;50.046;10.314;2022-07-17T07:27:21;19.70;1.00
10543;DHT22;5320;50.046;10.314;2022-07-17T07:29:47;19.70;1.00
10543;DHT22;5320;50.046;10.314;2022-07-17T07:32:13;19.70;1.00
10543;DHT22;5320;50.046;10.314;2022-07-17T07:34:39;19.70;1.00
10543;DHT22;5320;50.046;10.314;2022-07-17T07:37:05;19.70;1.00
10543;DHT22;5320;50.046;10.314;2022-07-17T07:39:30;19.90;1.00
10543;DHT22;5320;50.046;10.314;2022-07-17T07:41:56;19.90;1.00
10543;DHT22;5320;50.046;10.314;2022-07-17T07:44:22;19.90;1.00
10543;DHT22;5320;50.046;10.314;2022-07-17T07:46:48;19.90;1.00
10543;DHT22;5320;50.046;10.314;2022-07-17T07:49:14;20.00;1.00
10543;DHT22;5320;50.046;10.314;2022-07-17T07:51:41;20.30;1.00
10543;DHT22;5320;50.046;10.314;2022-07-17T07:54:07;20.50;1.00
10543;DHT22;5320;50.046;10.314;2022-07-17T07:56:33;20.70;1.00
10543;DHT22;5320;50.046;10.314;2022-07-17T07:58:59;20.90;1.00
10543;DHT22;5320;50.046;10.314;2022-07-17T08:01:25;21.00;1.00
10543;DHT22;5320;50.046;10.314;2022-07-17T08:03:50;21.00;1.00
10543;DHT22;5320;50.046;10.314;2022-07-17T08:06:16;21.00;1.00
10543;DHT22;5320;50.046;10.314;2022-07-17T08:08:42;21.10;1.00
10543;DHT22;5320;50.046;10.314;2022-07-17T08:11:08;21.10;1.00
10543;DHT22;5320;50.046;10.314;2022-07-17T08:13:34;20.80;1.00
10543;DHT22;5320;50.046;10.314;2022-07-17T08:15:59;20.50;1.00
10543;DHT22;5320;50.046;10.314;2022-07-17T08:18:26;20.40;1.00
10543;DHT22;5320;50.046;10.314;2022-07-17T08:20:53;20.80;1.00
10543;DHT22;5320;50.046;10.314;2022-07-17T08:23:19;21.20;1.00
10543;DHT22;5320;50.046;10.314;2022-07-17T08:25:45;21.60;1.00
10543;DHT22;5320;50.046;10.314;2022-07-17T08:28:13;21.40;1.00
10543;DHT22;5320;50.046;10.314;2022-07-17T08:30:39;21.20;1.00
10543;DHT22;5320;50.046;10.314;2022-07-17T08:33:06;21.60;1.00
10543;DHT22;5320;50.046;10.314;2022-07-17T08:35:34;21.80;1.00
10543;DHT22;5320;50.046;10.314;2022-07-17T08:38:02;22.00;1.00
10543;DHT22;5320;50.046;10.314;2022-07-17T08:40:31;21.80;1.00
10543;DHT22;5320;50.046;10.314;2022-07-17T08:42:58;22.10;1.00
10543;DHT22;5320;50.046;10.314;2022-07-17T08:45:25;22.00;1.00
10543;DHT22;5320;50.046;10.314;2022-07-17T08:47:52;21.80;1.00
10543;DHT22;5320;50.046;10.314;2022-07-17T08:50:26;22.10;1.00
10543;DHT22;5320;50.046;10.314;2022-07-17T08:52:52;21.90;1.00
10543;DHT22;5320;50.046;10.314;2022-07-17T08:55:18;22.30;1.00
10543;DHT22;5320;50.046;10.314;2022-07-17T08:57:45;21.70;99.90
10543;DHT22;5320;50.046;10.314;2022-07-17T09:00:13;22.10;99.90
10543;DHT22;5320;50.046;10.314;2022-07-17T09:03:13;22.70;99.90
10543;DHT22;5320;50.046;10.314;2022-07-17T09:05:41;22.90;99.90
10543;DHT22;5320;50.046;10.314;2022-07-17T09:08:08;22.80;99.90
10543;DHT22;5320;50.046;10.314;2022-07-17T09:10:41;22.50;99.90
10543;DHT22;5320;50.046;10.314;2022-07-17T09:13:28;22.70;99.90
10543;DHT22;5320;50.046;10.314;2022-07-17T09:18:24;23.00;99.90
10543;DHT22;5320;50.046;10.314;2022-07-17T09:20:55;23.00;99.90
10543;DHT22;5320;50.046;10.314;2022-07-17T09:23:23;23.10;99.90
10543;DHT22;5320;50.046;10.314;2022-07-17T09:25:54;23.10;99.90
10543;DHT22;5320;50.046;10.314;2022-07-17T09:28:21;23.10;99.90
10543;DHT22;5320;50.046;10.314;2022-07-17T09:30:50;23.40;99.90
10543;DHT22;5320;50.046;10.314;2022-07-17T09:33:19;23.50;99.90
10543;DHT22;5320;50.046;10.314;2022-07-17T09:35:46;23.60;99.90
10543;DHT22;5320;50.046;10.314;2022-07-17T09:38:24;23.90;99.90
10543;DHT22;5320;50.046;10.314;2022-07-17T09:40:50;24.40;99.90
10543;DHT22;5320;50.046;10.314;2022-07-17T09:48:44;25.20;99.90
10543;DHT22;5320;50.046;10.314;2022-07-17T09:53:47;25.00;99.90
10543;DHT22;5320;50.046;10.314;2022-07-17T09:56:17;25.30;99.90
10543;DHT22;5320;50.046;10.314;2022-07-17T09:58:48;25.20;99.90
10543;DHT22;5320;50.046;10.314;2022-07-17T10:01:15;25.20;99.90
10543;DHT22;5320;50.046;10.314;2022-07-17T10:03:42;25.50;99.90
10543;DHT22;5320;50.046;10.314;2022-07-17T10:06:10;25.50;99.90
10543;DHT22;5320;50.046;10.314;2022-07-17T10:08:37;25.40;99.90
10543;DHT22;5320;50.046;10.314;2022-07-17T10:11:05;24.70;99.90
10543;DHT22;5320;50.046;10.314;2022-07-17T10:13:31;24.60;99.90
10543;DHT22;5320;50.046;10.314;2022-07-17T10:15:57;24.70;99.90
10543;DHT22;5320;50.046;10.314;2022-07-17T10:18:37;24.70;99.90
10543;DHT22;5320;50.046;10.314;2022-07-17T10:21:13;24.80;99.90
10543;DHT22;5320;50.046;10.314;2022-07-17T10:23:41;25.40;99.90
10543;DHT22;5320;50.046;10.314;2022-07-17T10:26:08;24.90;99.90
10543;DHT22;5320;50.046;10.314;2022-07-17T10:28:45;24.80;99.90
10543;DHT22;5320;50.046;10.314;2022-07-17T10:31:25;24.60;99.90
10543;DHT22;5320;50.046;10.314;2022-07-17T10:36:39;25.10;99.90
10543;DHT22;5320;50.046;10.314;2022-07-17T10:39:19;25.40;99.90
10543;DHT22;5320;50.046;10.314;2022-07-17T10:41:57;26.10;99.90
10543;DHT22;5320;50.046;10.314;2022-07-17T10:44:24;26.30;99.90
10543;DHT22;5320;50.046;10.314;2022-07-17T10:46:51;26.50;99.90
10543;DHT22;5320;50.046;10.314;2022-07-17T10:49:17;26.40;99.90
10543;DHT22;5320;50.046;10.314;2022-07-17T10:51:42;26.40;99.90
10543;DHT22;5320;50.046;10.314;2022-07-17T10:54:08;25.80;99.90
10543;DHT22;5320;50.046;10.314;2022-07-17T10:56:35;26.90;98.90
10543;DHT22;5320;50.046;10.314;2022-07-17T10:59:02;27.50;93.70
10543;DHT22;5320;50.046;10.314;2022-07-17T11:01:28;27.60;84.30
10543;DHT22;5320;50.046;10.314;2022-07-17T11:03:57;27.20;71.30
10543;DHT22;5320;50.046;10.314;2022-07-17T11:06:30;26.60;64.60
10543;DHT22;5320;50.046;10.314;2022-07-17T11:09:02;26.00;61.30
10543;DHT22;5320;50.046;10.314;2022-07-17T11:11:48;25.80;59.50
10543;DHT22;5320;50.046;10.314;2022-07-17T11:14:26;26.20;56.90
10543;DHT22;5320;50.046;10.314;2022-07-17T11:16:59;26.20;51.40
10543;DHT22;5320;50.046;10.314;2022-07-17T11:19:30;26.70;49.20
10543;DHT22;5320;50.046;10.314;2022-07-17T11:21:58;27.10;44.00
10543;DHT22;5320;50.046;10.314;2022-07-17T11:24:34;26.80;31.20
10543;DHT22;5320;50.046;10.314;2022-07-17T11:27:00;26.30;25.40
10543;DHT22;5320;50.046;10.314;2022-07-17T11:29:26;25.70;23.10
10543;DHT22;5320;50.046;10.314;2022-07-17T11:31:56;26.10;20.50
10543;DHT22;5320;50.046;10.314;2022-07-17T11:34:24;27.00;15.80
10543;DHT22;5320;50.046;10.314;2022-07-17T11:36:50;27.50;10.00
10543;DHT22;5320;50.046;10.314;2022-07-17T11:39:17;28.30;5.00
10543;DHT22;5320;50.046;10.314;2022-07-17T11:41:49;29.10;1.00
10543;DHT22;5320;50.046;10.314;2022-07-17T11:44:23;28.40;1.00
10543;DHT22;5320;50.046;10.314;2022-07-17T11:46:51;27.30;1.00
10543;DHT22;5320;50.046;10.314;2022-07-17T11:49:31;26.90;1.00
10543;DHT22;5320;50.046;10.314;2022-07-17T11:51:59;27.60;1.00
10543;DHT22;5320;50.046;10.314;2022-07-17T11:54:31;27.40;1.00
10543;DHT22;5320;50.046;10.314;2022-07-17T11:56:58;27.50;1.00
10543;DHT22;5320;50.046;10.314;2022-07-17T11:59:26;28.00;1.00
10543;DHT22;5320;50.046;10.314;2022-07-17T12:01:53;28.60;1.00
10543;DHT22;5320;50.046;10.314;2022-07-17T12:04:19;28.70;1.00
10543;DHT22;5320;50.046;10.314;2022-07-17T12:06:46;28.00;1.00
10543;DHT22;5320;50.046;10.314;2022-07-17T12:09:12;27.50;1.00
10543;DHT22;5320;50.046;10.314;2022-07-17T12:11:46;27.40;1.00
10543;DHT22;5320;50.046;10.314;2022-07-17T12:14:12;27.10;1.00
10543;DHT22;5320;50.046;10.314;2022-07-17T12:16:38;27.20;1.00
10543;DHT22;5320;50.046;10.314;2022-07-17T12:19:11;28.40;1.00
10543;DHT22;5320;50.046;10.314;2022-07-17T12:22:01;29.60;1.00
10543;DHT22;5320;50.046;10.314;2022-07-17T12:24:32;28.90;1.00
10543;DHT22;5320;50.046;10.314;2022-07-17T12:27:04;28.40;1.00
10543;DHT22;5320;50.046;10.314;2022-07-17T12:29:31;27.80;1.00
10543;DHT22;5320;50.046;10.314;2022-07-17T12:32:11;27.50;1.00
10543;DHT22;5320;50.046;10.314;2022-07-17T12:34:40;27.40;1.00
10543;DHT22;5320;50.046;10.314;2022-07-17T12:37:13;27.30;1.00
10543;DHT22;5320;50.046;10.314;2022-07-17T12:39:39;27.40;1.00
10543;DHT22;5320;50.046;10.314;2022-07-17T12:42:05;28.00;1.00
10543;DHT22;5320;50.046;10.314;2022-07-17T12:44:31;28.40;1.00
10543;DHT22;5320;50.046;10.314;2022-07-17T12:46:57;28.70;1.00
10543;DHT22;5320;50.046;10.314;2022-07-17T12:49:23;28.30;1.00
10543;DHT22;5320;50.046;10.314;2022-07-17T12:51:51;28.40;1.00
10543;DHT22;5320;50.046;10.314;2022-07-17T12:54:17;29.60;1.00
10543;DHT22;5320;50.046;10.314;2022-07-17T12:56:43;30.40;1.00
10543;DHT22;5320;50.046;10.314;2022-07-17T12:59:08;30.90;1.00
10543;DHT22;5320;50.046;10.314;2022-07-17T13:01:35;28.90;1.00
10543;DHT22;5320;50.046;10.314;2022-07-17T13:04:01;28.60;1.00
10543;DHT22;5320;50.046;10.314;2022-07-17T13:06:27;28.50;1.00
10543;DHT22;5320;50.046;10.314;2022-07-17T13:08:53;27.80;1.00
10543;DHT22;5320;50.046;10.314;2022-07-17T13:11:18;27.90;1.00
10543;DHT22;5320;50.046;10.314;2022-07-17T13:13:45;28.70;1.00
10543;DHT22;5320;50.046;10.314;2022-07-17T13:16:11;29.40;1.00
10543;DHT22;5320;50.046;10.314;2022-07-17T13:18:40;30.00;1.00
10543;DHT22;5320;50.046;10.314;2022-07-17T13:21:06;30.90;1.00
10543;DHT22;5320;50.046;10.314;2022-07-17T13:23:33;31.20;1.00
10543;DHT22;5320;50.046;10.314;2022-07-17T13:26:02;31.80;1.00
10543;DHT22;5320;50.046;10.314;2022-07-17T13:28:29;31.50;1.00
10543;DHT22;5320;50.046;10.314;2022-07-17T13:30:55;31.10;1.00
10543;DHT22;5320;50.046;10.314;2022-07-17T13:33:22;30.50;1.00
10543;DHT22;5320;50.046;10.314;2022-07-17T13:35:48;29.70;1.00
10543;DHT22;5320;50.046;10.314;2022-07-17T13:38:14;28.70;1.00
10543;DHT22;5320;50.046;10.314;2022-07-17T13:40:40;29.20;1.00
10543;DHT22;5320;50.046;10.314;2022-07-17T13:43:06;30.30;1.00
10543;DHT22;5320;50.046;10.314;2022-07-17T13:45:32;30.70;1.00
10543;DHT22;5320;50.046;10.314;2022-07-17T13:47:58;31.10;1.00
10543;DHT22;5320;50.046;10.314;2022-07-17T13:50:24;31.30;1.00
10543;DHT22;5320;50.046;10.314;2022-07-17T13:52:51;31.00;1.00
10543;DHT22;5320;50.046;10.314;2022-07-17T13:55:17;30.60;1.00
10543;DHT22;5320;50.046;10.314;2022-07-17T13:57:42;29.80;1.00
10543;DHT22;5320;50.046;10.314;2022-07-17T14:00:09;29.60;1.00
10543;DHT22;5320;50.046;10.314;2022-07-17T14:02:37;29.90;1.00
10543;DHT22;5320;50.046;10.314;2022-07-17T14:05:04;30.70;1.00
10543;DHT22;5320;50.046;10.314;2022-07-17T14:07:30;30.70;1.00
10543;DHT22;5320;50.046;10.314;2022-07-17T14:09:56;30.40;1.00
10543;DHT22;5320;50.046;10.314;2022-07-17T14:12:22;30.60;1.00
10543;DHT22;5320;50.046;10.314;2022-07-17T14:14:48;30.20;1.00
10543;DHT22;5320;50.046;10.314;2022-07-17T14:17:14;29.70;1.00
10543;DHT22;5320;50.046;10.314;2022-07-17T14:19:43;28.60;1.00
10543;DHT22;5320;50.046;10.314;2022-07-17T14:22:09;28.50;1.00
10543;DHT22;5320;50.046;10.314;2022-07-17T14:24:35;28.70;1.00
10543;DHT22;5320;50.046;10.314;2022-07-17T14:27:01;29.20;1.00
10543;DHT22;5320;50.046;10.314;2022-07-17T14:29:27;29.10;1.00
10543;DHT22;5320;50.046;10.314;2022-07-17T14:31:53;29.60;1.00
10543;DHT22;5320;50.046;10.314;2022-07-17T14:34:19;29.40;1.00
10543;DHT22;5320;50.046;10.314;2022-07-17T14:36:45;29.90;1.00
10543;DHT22;5320;50.046;10.314;2022-07-17T14:39:11;30.70;1.00
10543;DHT22;5320;50.046;10.314;2022-07-17T14:41:38;30.60;1.00
10543;DHT22;5320;50.046;10.314;2022-07-17T14:44:04;29.90;1.00
10543;DHT22;5320;50.046;10.314;2022-07-17T14:46:30;30.30;1.00
10543;DHT22;5320;50.046;10.314;2022-07-17T14:48:56;30.90;1.00
10543;DHT22;5320;50.046;10.314;2022-07-17T14:51:22;31.60;1.00
10543;DHT22;5320;50.046;10.314;2022-07-17T14:53:48;32.00;1.00
10543;DHT22;5320;50.046;10.314;2022-07-17T14:56:14;32.60;1.00
10543;DHT22;5320;50.046;10.314;2022-07-17T14:58:40;32.80;1.00
10543;DHT22;5320;50.046;10.314;2022-07-17T15:01:06;33.00;1.00
10543;DHT22;5320;50.046;10.314;2022-07-17T15:03:33;33.20;1.00
10543;DHT22;5320;50.046;10.314;2022-07-17T15:05:59;33.10;1.00
10543;DHT22;5320;50.046;10.314;2022-07-17T15:08:24;31.40;1.00
10543;DHT22;5320;50.046;10.314;2022-07-17T15:10:50;31.60;1.00
10543;DHT22;5320;50.046;10.314;2022-07-17T15:13:16;31.80;1.00
10543;DHT22;5320;50.046;10.314;2022-07-17T15:15:42;30.80;1.00
10543;DHT22;5320;50.046;10.314;2022-07-17T15:18:08;31.10;1.00
10543;DHT22;5320;50.046;10.314;2022-07-17T15:20:34;30.60;1.00
10543;DHT22;5320;50.046;10.314;2022-07-17T15:23:02;29.50;1.00
10543;DHT22;5320;50.046;10.314;2022-07-17T15:25:28;29.30;1.00
10543;DHT22;5320;50.046;10.314;2022-07-17T15:27:54;29.10;1.00
10543;DHT22;5320;50.046;10.314;2022-07-17T15:30:20;29.90;1.00
10543;DHT22;5320;50.046;10.314;2022-07-17T15:32:46;29.70;1.00
10543;DHT22;5320;50.046;10.314;2022-07-17T15:35:12;29.60;1.00
10543;DHT22;5320;50.046;10.314;2022-07-17T15:37:38;29.30;1.00
10543;DHT22;5320;50.046;10.314;2022-07-17T15:40:05;29.80;1.00
10543;DHT22;5320;50.046;10.314;2022-07-17T15:42:31;30.30;1.00
10543;DHT22;5320;50.046;10.314;2022-07-17T15:44:56;30.70;1.00
10543;DHT22;5320;50.046;10.314;2022-07-17T15:47:22;31.10;1.00
10543;DHT22;5320;50.046;10.314;2022-07-17T15:49:48;31.50;1.00
10543;DHT22;5320;50.046;10.314;2022-07-17T15:52:14;31.70;1.00
10543;DHT22;5320;50.046;10.314;2022-07-17T15:54:39;31.30;1.00